Time;durP1;ratioP1;P1;durP2;ratioP2;P2;SDS_P1;SDS_P2;PMS_P1;PMS_P2;Temp;Humidity;BMP_temperature;BMP_pressure;BME280_temperature;BME280_humidity;BME280_pressure;Samples;Min_cycle;Max_cycle;Signal;HPM_P1;HPM_P2
2024/01/19 00:01:44;;;;;;;18.53;13.40;;;-2.90;78.30;;;;;;6253408;28;20258;-80
2024/01/19 00:04:47;;;;;;;16.33;13.63;;;-2.90;78.10;;;;;;6261980;28;20658;-80
2024/01/19 00:07:50;;;;;;;14.17;12.63;;;-2.90;78.20;;;;;;6253451;28;20729;-81
2024/01/19 00:10:53;;;;;;;15.83;13.33;;;-2.90;78.30;;;;;;6263363;28;20782;-78
2024/01/19 00:13:58;;;;;;;16.80;14.20;;;-2.90;78.10;;;;;;6271782;28;20317;-79
2024/01/19 00:17:01;;;;;;;13.87;12.33;;;-2.90;78.30;;;;;;6260595;28;20261;-81
2024/01/19 00:20:06;;;;;;;16.03;13.03;;;-3.00;78.30;;;;;;6245836;28;20233;-81
2024/01/19 00:23:09;;;;;;;14.50;13.00;;;-2.90;78.30;;;;;;6269357;28;20322;-80
2024/01/19 00:26:12;;;;;;;17.80;12.37;;;-3.00;78.30;;;;;;6255240;28;20222;-79
2024/01/19 00:29:17;;;;;;;18.97;13.27;;;-2.90;78.10;;;;;;6264720;28;20229;-81
2024/01/19 00:32:20;;;;;;;17.30;12.53;;;-3.00;78.20;;;;;;6265573;28;20242;-81
2024/01/19 00:35:23;;;;;;;15.23;11.87;;;-3.00;78.30;;;;;;6254663;28;20652;-82
2024/01/19 00:38:27;;;;;;;16.70;12.23;;;-3.00;78.20;;;;;;6256694;28;20830;-79
2024/01/19 00:41:30;;;;;;;19.70;12.27;;;-2.90;78.10;;;;;;6257056;28;20262;-80
2024/01/19 00:44:34;;;;;;;12.20;10.97;;;-2.80;77.80;;;;;;6259429;28;20242;-81
2024/01/19 00:47:38;;;;;;;12.93;10.90;;;-2.90;77.50;;;;;;6248128;28;20238;-84
2024/01/19 00:50:41;;;;;;;13.53;10.73;;;-2.80;77.30;;;;;;6252316;28;20681;-81
2024/01/19 00:53:45;;;;;;;14.10;11.00;;;-2.80;77.20;;;;;;6248682;28;20233;-80
2024/01/19 00:56:48;;;;;;;14.83;10.63;;;-2.80;77.20;;;;;;6257921;28;20234;-81
2024/01/19 00:59:54;;;;;;;13.13;10.73;;;-2.80;77.00;;;;;;6247279;28;20912;-81
2024/01/19 01:02:58;;;;;;;12.40;11.17;;;-2.70;77.00;;;;;;6264433;28;20234;-80
2024/01/19 01:06:01;;;;;;;11.30;9.40;;;-2.60;76.40;;;;;;6257331;28;20732;-79
2024/01/19 01:09:04;;;;;;;19.67;10.57;;;-2.60;76.20;;;;;;6263230;28;20770;-81
2024/01/19 01:12:08;;;;;;;14.63;11.63;;;-2.60;76.30;;;;;;6263333;28;20258;-82
2024/01/19 01:15:13;;;;;;;13.33;11.00;;;-2.60;76.20;;;;;;6263885;28;20237;-80
2024/01/19 01:18:17;;;;;;;13.63;11.17;;;-2.60;76.30;;;;;;6250284;28;20845;-81
2024/01/19 01:21:21;;;;;;;11.83;10.47;;;-2.50;75.90;;;;;;6257073;28;20246;-79
2024/01/19 01:24:24;;;;;;;11.80;10.73;;;-2.40;75.60;;;;;;6264822;28;20332;-82
2024/01/19 01:27:27;;;;;;;14.00;11.37;;;-2.50;75.50;;;;;;6257940;28;20300;-81
2024/01/19 01:30:31;;;;;;;19.00;12.33;;;-2.50;75.60;;;;;;6255589;28;20351;-81
2024/01/19 01:33:35;;;;;;;14.93;11.20;;;-2.50;75.70;;;;;;6245754;28;20420;-82
2024/01/19 01:36:39;;;;;;;13.60;11.67;;;-2.50;75.70;;;;;;6255247;28;20238;-81
2024/01/19 01:39:42;;;;;;;12.90;11.60;;;-2.60;75.80;;;;;;6257472;28;20237;-80
2024/01/19 01:42:45;;;;;;;15.37;11.53;;;-2.60;75.90;;;;;;6256439;28;20233;-81
2024/01/19 01:45:50;;;;;;;14.57;11.07;;;-2.60;75.80;;;;;;6261796;28;20299;-81
2024/01/19 01:48:55;;;;;;;11.70;10.50;;;-2.60;75.90;;;;;;6254828;28;20233;-80
2024/01/19 01:51:58;;;;;;;13.10;11.70;;;-2.50;75.70;;;;;;6252405;28;20232;-81
2024/01/19 01:55:02;;;;;;;14.63;11.97;;;-2.60;75.50;;;;;;6264291;28;20883;-82
2024/01/19 01:58:05;;;;;;;16.87;11.83;;;-2.60;75.80;;;;;;6248521;28;20241;-81
2024/01/19 02:01:10;;;;;;;13.80;11.50;;;-2.80;76.10;;;;;;6260207;28;20324;-80
2024/01/19 02:04:13;;;;;;;14.37;11.67;;;-2.80;76.10;;;;;;6255116;28;20284;-80
2024/01/19 02:07:16;;;;;;;14.53;11.47;;;-2.80;76.10;;;;;;6246722;28;20226;-80
2024/01/19 02:10:20;;;;;;;13.67;11.53;;;-2.80;76.10;;;;;;6245122;28;20236;-82
2024/01/19 02:13:23;;;;;;;14.37;11.90;;;-2.90;76.10;;;;;;6260427;28;20319;-79
2024/01/19 02:16:28;;;;;;;13.17;11.33;;;-2.90;76.30;;;;;;6249995;28;20246;-81
2024/01/19 02:19:35;;;;;;;14.57;11.03;;;-3.00;76.60;;;;;;6261669;28;20246;-80
2024/01/19 02:22:39;;;;;;;13.83;11.20;;;-3.00;76.70;;;;;;6245741;28;20760;-81
2024/01/19 02:25:46;;;;;;;14.10;11.67;;;-3.00;76.60;;;;;;6259056;28;20246;-81
2024/01/19 02:28:50;;;;;;;12.90;11.50;;;-3.00;76.40;;;;;;6246900;28;20838;-81
2024/01/19 02:31:53;;;;;;;13.27;11.63;;;-3.00;76.40;;;;;;6254653;28;20233;-79
2024/01/19 02:34:56;;;;;;;12.77;11.53;;;-3.00;76.40;;;;;;6261303;28;20726;-80
2024/01/19 02:37:59;;;;;;;13.40;12.10;;;-3.00;76.40;;;;;;6263566;28;20257;-81
2024/01/19 02:41:04;;;;;;;12.30;11.10;;;-3.10;76.60;;;;;;6254603;28;20229;-82
2024/01/19 02:44:07;;;;;;;12.97;11.57;;;-3.10;76.50;;;;;;6245053;28;20231;-82
2024/01/19 02:47:10;;;;;;;17.13;11.73;;;-3.10;76.60;;;;;;6246562;28;20326;-78
2024/01/19 02:50:14;;;;;;;13.43;11.57;;;-3.00;76.30;;;;;;6246312;28;20255;-80
2024/01/19 02:53:17;;;;;;;14.67;10.40;;;-3.00;76.20;;;;;;6254018;28;20231;-81
2024/01/19 02:56:21;;;;;;;13.90;10.10;;;-3.00;76.10;;;;;;6244722;28;20850;-81
2024/01/19 02:59:24;;;;;;;12.23;9.67;;;-3.00;75.80;;;;;;6241584;28;20250;-80
2024/01/19 03:02:27;;;;;;;11.10;10.00;;;-2.90;75.70;;;;;;6229124;28;20242;-81
2024/01/19 03:05:30;;;;;;;15.03;9.83;;;-2.90;75.50;;;;;;6226322;28;20250;-79
2024/01/19 03:08:34;;;;;;;10.97;9.20;;;-2.80;75.30;;;;;;6235713;28;20234;-81
2024/01/19 03:11:38;;;;;;;9.87;8.97;;;-2.80;75.10;;;;;;6221037;28;20239;-80
2024/01/19 03:14:41;;;;;;;12.23;9.00;;;-2.70;74.70;;;;;;6222043;28;20235;-82
2024/01/19 03:17:45;;;;;;;11.83;8.97;;;-2.70;74.30;;;;;;6220617;28;20246;-81
2024/01/19 03:20:48;;;;;;;9.30;8.23;;;-2.70;74.10;;;;;;6223920;28;20245;-80
2024/01/19 03:23:51;;;;;;;15.60;8.10;;;-2.70;74.10;;;;;;6236546;28;20242;-83
2024/01/19 03:26:56;;;;;;;10.20;8.13;;;-2.50;73.60;;;;;;6229723;28;20243;-82
2024/01/19 03:29:59;;;;;;;8.33;7.57;;;-2.50;73.40;;;;;;6221858;28;20242;-83
2024/01/19 03:33:02;;;;;;;8.80;7.50;;;-2.50;73.20;;;;;;6204093;28;20251;-83
2024/01/19 03:36:06;;;;;;;7.77;7.27;;;-2.50;73.00;;;;;;6233184;28;20776;-80
2024/01/19 03:39:09;;;;;;;8.10;7.17;;;-2.50;72.80;;;;;;6221673;28;21229;-82
2024/01/19 03:42:14;;;;;;;8.93;7.57;;;-2.40;72.60;;;;;;6233277;28;20717;-81
2024/01/19 03:45:17;;;;;;;8.10;7.17;;;-2.40;72.60;;;;;;6229629;28;20235;-80
2024/01/19 03:48:20;;;;;;;7.30;6.67;;;-2.40;72.50;;;;;;6225556;28;20239;-81
2024/01/19 03:51:23;;;;;;;7.73;7.13;;;-2.40;72.60;;;;;;6229982;28;20235;-81
2024/01/19 03:54:26;;;;;;;7.43;6.93;;;-2.30;72.20;;;;;;6241452;28;20313;-80
2024/01/19 03:57:31;;;;;;;7.93;6.90;;;-2.30;71.90;;;;;;6238534;28;20242;-81
2024/01/19 04:00:34;;;;;;;7.63;7.00;;;-2.20;71.70;;;;;;6216545;28;20259;-81
2024/01/19 04:03:39;;;;;;;8.73;7.07;;;-2.20;71.50;;;;;;6227544;28;20237;-80
2024/01/19 04:06:43;;;;;;;11.00;7.23;;;-2.10;71.30;;;;;;6241570;28;20241;-80
2024/01/19 04:09:46;;;;;;;7.77;7.17;;;-2.10;71.20;;;;;;6241524;28;20273;-80
2024/01/19 04:12:52;;;;;;;7.63;6.93;;;-2.10;71.00;;;;;;6236629;28;20312;-79
2024/01/19 04:15:55;;;;;;;7.43;6.90;;;-2.00;70.80;;;;;;6225115;28;20397;-81
2024/01/19 04:18:58;;;;;;;8.27;7.33;;;-2.00;70.90;;;;;;6230130;28;20247;-79
2024/01/19 04:22:02;;;;;;;8.00;7.07;;;-2.00;70.80;;;;;;6230397;28;20762;-82
2024/01/19 04:25:06;;;;;;;7.23;6.50;;;-1.90;70.80;;;;;;6254694;28;20230;-80
2024/01/19 04:28:11;;;;;;;7.30;6.60;;;-1.80;70.40;;;;;;6246771;28;20233;-81
2024/01/19 04:31:14;;;;;;;6.70;6.27;;;-1.80;70.20;;;;;;6261020;28;20253;-80
2024/01/19 04:34:17;;;;;;;8.63;6.97;;;-1.70;69.90;;;;;;6257864;28;20234;-81
2024/01/19 04:37:21;;;;;;;7.60;6.87;;;-1.70;69.80;;;;;;6270245;28;20263;-80
2024/01/19 04:40:24;;;;;;;7.10;6.50;;;-1.70;69.70;;;;;;6257706;28;20361;-78
2024/01/19 04:43:28;;;;;;;6.87;6.27;;;-1.60;69.40;;;;;;6254338;28;20257;-82
2024/01/19 04:46:31;;;;;;;10.87;6.57;;;-1.60;69.50;;;;;;6253701;28;20339;-80
2024/01/19 04:49:34;;;;;;;7.43;6.70;;;-1.60;69.50;;;;;;6256202;28;20285;-79
2024/01/19 04:52:37;;;;;;;7.47;6.80;;;-1.60;69.50;;;;;;6263314;28;20616;-80
2024/01/19 04:55:40;;;;;;;7.83;7.13;;;-1.70;69.60;;;;;;6253890;28;20634;-80
2024/01/19 04:58:45;;;;;;;11.53;6.97;;;-1.70;69.70;;;;;;6257836;28;20325;-81
2024/01/19 05:01:48;;;;;;;9.23;7.00;;;-1.80;69.90;;;;;;6255261;28;20253;-80
2024/01/19 05:04:51;;;;;;;7.10;6.50;;;-1.80;69.90;;;;;;6246756;28;20692;-81
2024/01/19 05:07:55;;;;;;;6.90;5.93;;;-1.80;69.90;;;;;;6260753;28;20604;-81
2024/01/19 05:10:58;;;;;;;6.60;6.17;;;-1.70;69.90;;;;;;6260265;28;20229;-80
2024/01/19 05:14:05;;;;;;;7.77;6.20;;;-1.70;69.80;;;;;;6254493;28;20983;-80
2024/01/19 05:17:08;;;;;;;6.70;6.20;;;-1.60;69.80;;;;;;6249733;28;20703;-81
2024/01/19 05:20:12;;;;;;;6.97;6.33;;;-1.60;69.80;;;;;;6259594;28;20617;-81
2024/01/19 05:23:15;;;;;;;7.83;6.03;;;-1.50;69.80;;;;;;6252489;28;20235;-81
2024/01/19 05:26:18;;;;;;;9.20;5.90;;;-1.60;69.60;;;;;;6251050;28;20246;-80
2024/01/19 05:29:23;;;;;;;6.43;5.83;;;-1.50;69.50;;;;;;6258692;28;20233;-81
2024/01/19 05:32:26;;;;;;;9.27;5.77;;;-1.50;69.70;;;;;;6263774;28;20754;-78
2024/01/19 05:35:30;;;;;;;5.97;5.63;;;-1.50;69.60;;;;;;6257198;28;20316;-79
2024/01/19 05:38:33;;;;;;;5.77;5.37;;;-1.50;69.60;;;;;;6271213;28;20248;-81
2024/01/19 05:41:36;;;;;;;7.07;5.87;;;-1.50;69.30;;;;;;6265194;28;20293;-80
2024/01/19 05:44:44;;;;;;;6.50;6.00;;;-1.50;69.40;;;;;;6256219;28;20251;-80
2024/01/19 05:47:48;;;;;;;6.67;5.63;;;-1.60;69.60;;;;;;6243559;28;20246;-79
2024/01/19 05:50:51;;;;;;;6.30;5.83;;;-1.50;69.40;;;;;;6249962;28;20244;-80
2024/01/19 05:53:54;;;;;;;5.27;5.07;;;-1.50;69.50;;;;;;6263196;28;20313;-82
2024/01/19 05:56:57;;;;;;;5.37;5.13;;;-1.50;69.60;;;;;;6254885;28;20875;-80
2024/01/19 06:00:02;;;;;;;5.50;5.20;;;-1.50;69.50;;;;;;6251270;28;20369;-81
2024/01/19 06:03:06;;;;;;;6.30;6.00;;;-1.50;69.50;;;;;;6260375;28;20234;-80
2024/01/19 06:06:11;;;;;;;6.37;5.87;;;-1.50;69.80;;;;;;6254191;28;20230;-80
2024/01/19 06:09:14;;;;;;;7.60;5.57;;;-1.50;69.80;;;;;;6264169;28;20321;-79
2024/01/19 06:12:18;;;;;;;8.07;5.87;;;-1.50;69.80;;;;;;6231171;28;20309;-80
2024/01/19 06:15:23;;;;;;;10.07;5.83;;;-1.50;69.80;;;;;;6237653;28;20305;-79
2024/01/19 06:18:26;;;;;;;6.57;5.87;;;-1.50;69.80;;;;;;6243564;28;20238;-79
2024/01/19 06:21:30;;;;;;;6.33;5.53;;;-1.50;69.70;;;;;;6231645;28;20317;-79
2024/01/19 06:24:35;;;;;;;6.03;5.50;;;-1.50;69.60;;;;;;6229726;28;20231;-81
2024/01/19 06:27:38;;;;;;;6.13;5.63;;;-1.50;69.70;;;;;;6238943;28;20223;-78
2024/01/19 06:30:44;;;;;;;6.30;5.80;;;-1.50;69.70;;;;;;6229831;28;20230;-77
2024/01/19 06:33:47;;;;;;;6.80;5.70;;;-1.50;69.80;;;;;;6237925;28;20861;-76
2024/01/19 06:36:50;;;;;;;7.07;5.40;;;-1.40;69.70;;;;;;6213783;28;20383;-78
2024/01/19 06:39:54;;;;;;;6.50;5.87;;;-1.40;69.80;;;;;;6214894;28;20416;-77
2024/01/19 06:42:57;;;;;;;6.30;5.73;;;-1.40;69.80;;;;;;6217000;28;20859;-78
2024/01/19 06:46:05;;;;;;;8.17;5.50;;;-1.50;70.30;;;;;;6217570;28;20239;-77
2024/01/19 06:49:08;;;;;;;6.33;5.70;;;-1.30;70.10;;;;;;6216495;28;20234;-78
2024/01/19 06:52:12;;;;;;;6.63;6.13;;;-1.30;70.00;;;;;;6239908;28;20274;-79
2024/01/19 06:55:15;;;;;;;8.50;6.13;;;-1.30;70.10;;;;;;6239530;28;20249;-79
2024/01/19 06:58:18;;;;;;;6.00;5.60;;;-1.20;70.20;;;;;;6242222;28;20230;-78
2024/01/19 07:01:24;;;;;;;10.77;5.60;;;-1.20;70.10;;;;;;6242503;28;20360;-80
2024/01/19 07:04:27;;;;;;;6.53;5.50;;;-1.10;70.00;;;;;;6240894;28;20272;-81
2024/01/19 07:07:30;;;;;;;8.00;6.03;;;-1.10;70.10;;;;;;6240243;28;20238;-79
2024/01/19 07:10:33;;;;;;;6.53;6.13;;;-1.20;70.20;;;;;;6246743;28;20273;-79
2024/01/19 07:13:36;;;;;;;6.43;5.60;;;-1.10;70.10;;;;;;6235968;28;20229;-79
2024/01/19 07:16:43;;;;;;;7.13;5.73;;;-1.10;70.00;;;;;;6235729;28;20818;-78
2024/01/19 07:19:46;;;;;;;8.60;5.87;;;-1.10;69.90;;;;;;6246070;28;20799;-79
2024/01/19 07:22:52;;;;;;;6.17;5.70;;;-1.10;70.00;;;;;;6245530;28;20238;-77
2024/01/19 07:25:55;;;;;;;6.73;6.07;;;-1.00;69.90;;;;;;6245635;28;20289;-78
2024/01/19 07:28:58;;;;;;;5.77;5.43;;;-1.00;69.90;;;;;;6263615;28;20303;-80
2024/01/19 07:32:03;;;;;;;7.10;6.60;;;-1.10;69.90;;;;;;6264277;28;20256;-80
2024/01/19 07:35:06;;;;;;;8.17;6.13;;;-1.00;70.00;;;;;;6264362;28;20794;-79
2024/01/19 07:38:10;;;;;;;8.87;6.40;;;-1.00;70.00;;;;;;6264898;28;20748;-77
2024/01/19 07:41:13;;;;;;;6.70;6.10;;;-0.90;69.90;;;;;;6264655;28;20271;-76
2024/01/19 07:44:16;;;;;;;7.30;6.60;;;-0.90;69.90;;;;;;6263777;28;20391;-78
2024/01/19 07:47:20;;;;;;;8.07;7.37;;;-1.00;70.00;;;;;;6269803;28;20378;-80
2024/01/19 07:50:23;;;;;;;7.00;6.60;;;-0.90;69.90;;;;;;6267031;28;20230;-81
2024/01/19 07:53:26;;;;;;;7.60;6.20;;;-0.90;69.90;;;;;;6265825;28;21033;-78
2024/01/19 07:56:29;;;;;;;7.33;6.63;;;-0.90;69.90;;;;;;6269021;28;20237;-76
2024/01/19 07:59:32;;;;;;;8.90;8.10;;;-0.80;69.80;;;;;;6268839;28;20237;-79
2024/01/19 08:02:37;;;;;;;7.70;6.57;;;-0.70;69.90;;;;;;6266994;28;20245;-80
2024/01/19 08:05:40;;;;;;;7.77;7.17;;;-0.70;69.80;;;;;;6268095;28;20279;-78
2024/01/19 08:08:43;;;;;;;7.60;6.90;;;-0.70;69.80;;;;;;6266632;28;20244;-78
2024/01/19 08:11:46;;;;;;;8.40;7.60;;;-0.70;69.80;;;;;;6271130;28;20249;-78
2024/01/19 08:14:50;;;;;;;8.30;7.53;;;-0.60;69.60;;;;;;6269655;28;20238;-78
2024/01/19 08:17:54;;;;;;;8.33;7.43;;;-0.60;69.70;;;;;;6266977;28;20256;-78
2024/01/19 08:20:57;;;;;;;7.77;7.00;;;-0.60;69.60;;;;;;6266891;28;20242;-75
2024/01/19 08:24:01;;;;;;;7.97;7.23;;;-0.50;69.50;;;;;;6267133;28;20238;-78
2024/01/19 08:27:04;;;;;;;14.47;7.90;;;-0.50;69.40;;;;;;6269801;28;20921;-76
2024/01/19 08:30:09;;;;;;;8.13;6.97;;;-0.50;69.50;;;;;;6267424;28;20897;-77
2024/01/19 08:33:17;;;;;;;7.93;7.37;;;-0.50;69.50;;;;;;6258885;28;20296;-77
2024/01/19 08:36:23;;;;;;;10.73;7.87;;;-0.50;69.50;;;;;;6266321;28;20237;-78
2024/01/19 08:39:27;;;;;;;8.43;7.33;;;-0.50;69.80;;;;;;6262624;28;20309;-78
2024/01/19 08:42:30;;;;;;;8.57;7.77;;;-0.50;69.80;;;;;;6267453;28;20272;-78
2024/01/19 08:45:33;;;;;;;7.60;6.93;;;-0.50;69.70;;;;;;6268921;28;20324;-78
2024/01/19 08:48:37;;;;;;;8.70;8.00;;;-0.50;69.90;;;;;;6267697;28;20262;-78
2024/01/19 08:51:41;;;;;;;7.90;7.27;;;-0.50;70.00;;;;;;6266383;28;20233;-78
2024/01/19 08:54:45;;;;;;;8.83;8.13;;;-0.60;70.50;;;;;;6267764;28;20238;-79
2024/01/19 08:57:48;;;;;;;8.07;7.27;;;-0.50;70.60;;;;;;6267241;28;20325;-80
2024/01/19 09:00:51;;;;;;;8.50;7.73;;;-0.60;70.70;;;;;;6267539;28;20298;-78
2024/01/19 09:03:56;;;;;;;8.80;8.00;;;-0.60;70.90;;;;;;6264536;28;20295;-78
2024/01/19 09:06:59;;;;;;;9.47;7.87;;;-0.40;70.50;;;;;;6267170;28;20245;-79
2024/01/19 09:10:02;;;;;;;11.17;7.70;;;-0.30;70.20;;;;;;6268827;28;20269;-80
2024/01/19 09:13:05;;;;;;;8.57;7.87;;;-0.20;70.10;;;;;;6267093;28;20363;-79
2024/01/19 09:16:09;;;;;;;15.60;8.60;;;-0.10;69.80;;;;;;6267336;28;21267;-78
2024/01/19 09:19:14;;;;;;;11.27;8.27;;;0.00;69.40;;;;;;6255300;28;20237;-77
2024/01/19 09:22:17;;;;;;;10.73;9.20;;;0.00;69.50;;;;;;6267571;28;20323;-76
2024/01/19 09:25:20;;;;;;;9.13;8.27;;;0.00;69.30;;;;;;6267435;28;20242;-80
2024/01/19 09:28:23;;;;;;;8.53;7.90;;;0.10;69.00;;;;;;6266793;28;20257;-76
2024/01/19 09:31:26;;;;;;;9.43;8.63;;;0.20;68.70;;;;;;6267314;28;20306;-78
2024/01/19 09:34:31;;;;;;;10.07;9.03;;;0.00;69.30;;;;;;6264172;28;20245;-77
2024/01/19 09:37:34;;;;;;;8.87;8.07;;;0.20;69.00;;;;;;6265819;28;20252;-78
2024/01/19 09:40:39;;;;;;;9.33;8.10;;;0.30;68.60;;;;;;6257402;28;20323;-76
2024/01/19 09:43:46;;;;;;;8.93;8.33;;;0.30;68.60;;;;;;6266200;28;20274;-76
2024/01/19 09:47:17;;;;;;;10.67;8.37;;;0.40;68.40;;;;;;6265973;28;20237;-78
2024/01/19 09:50:26;;;;;;;11.27;8.27;;;0.50;68.20;;;;;;6251508;28;20238;-76
2024/01/19 09:53:32;;;;;;;8.83;7.83;;;0.50;68.40;;;;;;6262279;28;20233;-77
2024/01/19 09:56:37;;;;;;;9.87;8.30;;;0.60;68.10;;;;;;6263920;28;20889;-78
2024/01/19 09:59:40;;;;;;;8.83;8.13;;;0.60;68.10;;;;;;6266985;28;20627;-77
2024/01/19 10:02:45;;;;;;;9.73;8.77;;;0.60;67.90;;;;;;6253449;28;20240;-79
2024/01/19 10:05:52;;;;;;;8.60;8.00;;;0.70;67.60;;;;;;6264967;28;20241;-77
2024/01/19 10:08:58;;;;;;;8.87;8.13;;;0.80;67.30;;;;;;6264241;28;20249;-76
2024/01/19 10:12:02;;;;;;;9.37;8.53;;;0.80;67.40;;;;;;6262728;28;21099;-78
2024/01/19 10:15:07;;;;;;;9.17;8.40;;;0.80;67.60;;;;;;6265999;28;20303;-76
2024/01/19 10:18:11;;;;;;;8.23;7.63;;;1.00;67.10;;;;;;6265483;28;20233;-77
2024/01/19 10:21:27;;;;;;;9.03;8.33;;;1.20;66.80;;;;;;6259740;28;20318;-78
2024/01/19 10:24:30;;;;;;;8.77;7.90;;;1.10;67.10;;;;;;6266172;28;20244;-78
2024/01/19 10:27:46;;;;;;;8.90;8.20;;;1.10;66.80;;;;;;6264269;28;20653;-78
2024/01/19 10:30:49;;;;;;;9.43;8.63;;;1.10;66.80;;;;;;6233584;28;20735;-79
2024/01/19 10:33:55;;;;;;;9.07;8.27;;;1.10;66.90;;;;;;6259882;28;20237;-78
2024/01/19 10:37:00;;;;;;;9.57;8.53;;;1.10;67.10;;;;;;6266525;28;20240;-76
2024/01/19 10:40:21;;;;;;;9.67;8.87;;;1.10;67.30;;;;;;6264322;28;20643;-77
2024/01/19 10:43:24;;;;;;;8.63;7.93;;;1.10;67.30;;;;;;6249970;28;20242;-78
2024/01/19 10:46:27;;;;;;;9.10;8.20;;;1.00;67.30;;;;;;6222379;28;20719;-78
2024/01/19 10:49:30;;;;;;;12.90;9.03;;;1.10;67.40;;;;;;6221309;28;21060;-76
2024/01/19 10:52:35;;;;;;;9.27;8.37;;;1.40;67.30;;;;;;6223119;28;20726;-78
2024/01/19 10:55:47;;;;;;;20.53;9.53;;;1.40;66.80;;;;;;6218490;28;20374;-78
2024/01/19 10:58:51;;;;;;;9.93;7.83;;;1.40;66.90;;;;;;6222567;28;20238;-76
2024/01/19 11:01:58;;;;;;;10.67;8.47;;;1.50;66.60;;;;;;6223344;28;21252;-78
2024/01/19 11:05:02;;;;;;;9.73;8.67;;;1.60;66.40;;;;;;6221033;28;20276;-79
2024/01/19 11:08:07;;;;;;;9.50;8.63;;;1.60;66.40;;;;;;6223262;28;20746;-76
2024/01/19 11:11:15;;;;;;;9.30;8.47;;;1.80;66.30;;;;;;6222260;28;20273;-76
2024/01/19 11:14:30;;;;;;;10.00;8.90;;;1.70;66.40;;;;;;6274318;28;20237;-78
2024/01/19 11:17:59;;;;;;;9.50;8.63;;;1.80;66.10;;;;;;6193384;28;20316;-76
2024/01/19 11:21:13;;;;;;;8.80;7.93;;;1.70;66.00;;;;;;6248375;28;20242;-75
2024/01/19 11:24:19;;;;;;;10.30;8.07;;;1.80;66.20;;;;;;6247303;28;20287;-76
2024/01/19 11:27:28;;;;;;;9.63;8.37;;;1.90;65.90;;;;;;6234984;28;20611;-77
2024/01/19 11:30:44;;;;;;;9.27;8.47;;;1.80;66.20;;;;;;6246021;28;20797;-76
2024/01/19 11:33:47;;;;;;;10.50;8.40;;;1.80;66.20;;;;;;6244735;28;20265;-77
2024/01/19 11:36:51;;;;;;;9.50;8.10;;;2.00;65.80;;;;;;6247789;28;20370;-79
2024/01/19 11:39:55;;;;;;;12.87;8.40;;;2.10;66.00;;;;;;6242496;28;20234;-75
2024/01/19 11:42:58;;;;;;;8.93;7.97;;;1.90;66.00;;;;;;6249577;28;20265;-76
2024/01/19 11:46:01;;;;;;;8.47;7.67;;;1.80;66.40;;;;;;6267866;28;20242;-76
2024/01/19 11:49:04;;;;;;;8.67;7.83;;;1.90;66.20;;;;;;6267821;28;20240;-76
2024/01/19 11:52:41;;;;;;;8.43;7.63;;;1.90;65.90;;;;;;6268538;28;20249;-76
2024/01/19 11:55:47;;;;;;;8.13;7.43;;;2.00;65.90;;;;;;6234629;28;20292;-77
2024/01/19 11:58:51;;;;;;;8.57;7.87;;;2.00;66.00;;;;;;6222393;28;20234;-76
2024/01/19 12:01:54;;;;;;;8.93;7.90;;;2.00;66.00;;;;;;6268342;28;20245;-76
2024/01/19 12:04:59;;;;;;;8.53;7.90;;;2.00;66.10;;;;;;6266946;28;20721;-78
2024/01/19 12:08:04;;;;;;;8.47;6.60;;;2.20;65.60;;;;;;6268068;28;20914;-75
2024/01/19 12:11:09;;;;;;;7.97;7.27;;;2.20;65.50;;;;;;6268873;28;20279;-77
2024/01/19 12:14:14;;;;;;;8.77;7.30;;;2.30;65.50;;;;;;6249609;28;20227;-76
2024/01/19 12:17:17;;;;;;;16.20;7.07;;;2.20;65.30;;;;;;6219754;28;20272;-77
2024/01/19 12:20:23;;;;;;;7.83;7.20;;;2.30;65.30;;;;;;6222521;28;20291;-75
2024/01/19 12:23:29;;;;;;;7.43;6.73;;;2.20;65.10;;;;;;6219486;28;20390;-79
2024/01/19 12:26:32;;;;;;;8.83;7.03;;;2.20;65.40;;;;;;6218379;28;20286;-78
2024/01/19 12:29:36;;;;;;;7.83;7.23;;;2.20;65.40;;;;;;6221020;28;20319;-76
2024/01/19 12:32:39;;;;;;;9.67;7.70;;;2.20;65.30;;;;;;6219588;28;20251;-76
2024/01/19 12:35:45;;;;;;;7.57;7.10;;;2.10;65.70;;;;;;6219481;28;20359;-77
2024/01/19 12:39:03;;;;;;;6.83;6.43;;;2.10;65.70;;;;;;6248874;28;20466;-78
2024/01/19 12:42:08;;;;;;;8.40;6.87;;;2.10;65.90;;;;;;6266527;28;20239;-76
2024/01/19 12:45:13;;;;;;;6.87;6.23;;;2.20;65.90;;;;;;6269578;28;20844;-75
2024/01/19 12:48:16;;;;;;;7.40;6.73;;;2.40;65.40;;;;;;6270497;28;20405;-77
2024/01/19 12:51:27;;;;;;;9.20;6.90;;;2.40;65.20;;;;;;6267566;28;20261;-75
2024/01/19 12:54:43;;;;;;;8.30;7.43;;;2.40;65.40;;;;;;6255702;28;20238;-76
2024/01/19 12:57:49;;;;;;;10.40;7.03;;;2.40;65.30;;;;;;6251287;28;20234;-76
2024/01/19 13:00:52;;;;;;;8.77;6.93;;;2.20;65.60;;;;;;6268067;28;20242;-76
2024/01/19 13:03:57;;;;;;;8.07;7.27;;;2.20;65.70;;;;;;6265984;28;20229;-76
2024/01/19 13:07:00;;;;;;;9.93;7.20;;;2.20;65.50;;;;;;6266018;28;20269;-77
2024/01/19 13:10:06;;;;;;;7.10;6.50;;;2.20;65.60;;;;;;6268039;28;20265;-78
2024/01/19 13:13:10;;;;;;;7.80;7.07;;;2.10;66.00;;;;;;6267226;28;20245;-77
2024/01/19 13:16:13;;;;;;;7.63;6.93;;;2.20;65.90;;;;;;6266520;28;20245;-74
2024/01/19 13:19:17;;;;;;;13.43;6.73;;;2.20;66.00;;;;;;6264791;28;20244;-75
2024/01/19 13:22:21;;;;;;;11.03;7.53;;;2.20;65.80;;;;;;6266224;28;20272;-76
2024/01/19 13:25:25;;;;;;;7.97;7.23;;;2.20;65.90;;;;;;6265410;28;20241;-78
2024/01/19 13:28:29;;;;;;;8.20;7.37;;;2.10;66.20;;;;;;6265562;28;20225;-78
2024/01/19 13:31:33;;;;;;;8.57;7.47;;;2.20;66.40;;;;;;6269670;28;20249;-78
2024/01/19 13:34:36;;;;;;;8.37;7.47;;;2.00;66.70;;;;;;6266128;28;20252;-78
2024/01/19 13:37:39;;;;;;;7.93;7.30;;;2.10;66.70;;;;;;6265970;28;20240;-76
2024/01/19 13:40:43;;;;;;;11.77;7.23;;;2.20;66.40;;;;;;6266723;28;20241;-79
2024/01/19 13:43:47;;;;;;;7.90;6.90;;;2.20;66.40;;;;;;6257878;28;20234;-76
2024/01/19 13:46:50;;;;;;;9.10;7.10;;;2.10;66.20;;;;;;6258831;28;20238;-77
2024/01/19 13:49:53;;;;;;;10.13;7.47;;;2.10;66.40;;;;;;6266750;28;21029;-75
2024/01/19 13:52:57;;;;;;;8.87;7.90;;;2.00;66.60;;;;;;6266410;28;20237;-78
2024/01/19 13:56:02;;;;;;;8.43;7.57;;;1.90;67.00;;;;;;6267395;28;20631;-78
2024/01/19 13:59:05;;;;;;;8.57;7.93;;;1.90;67.20;;;;;;6266926;28;20234;-78
2024/01/19 14:02:10;;;;;;;9.63;8.07;;;1.80;67.50;;;;;;6265394;28;20317;-77
2024/01/19 14:05:14;;;;;;;11.73;8.17;;;1.80;67.60;;;;;;6265115;28;20245;-78
2024/01/19 14:08:21;;;;;;;15.00;9.60;;;1.90;67.50;;;;;;6263227;28;20905;-79
2024/01/19 14:11:25;;;;;;;8.53;7.83;;;1.90;67.60;;;;;;6268021;28;20230;-80
2024/01/19 14:14:30;;;;;;;10.70;8.50;;;1.70;67.90;;;;;;6266259;28;20233;-79
2024/01/19 14:17:33;;;;;;;8.43;7.50;;;1.80;68.00;;;;;;6268270;28;20242;-77
2024/01/19 14:20:37;;;;;;;9.33;7.93;;;1.80;68.00;;;;;;6266858;28;20249;-78
2024/01/19 14:23:40;;;;;;;10.43;9.20;;;1.90;67.70;;;;;;6270601;28;20241;-78
2024/01/19 14:26:45;;;;;;;8.17;7.43;;;1.80;67.90;;;;;;6267261;28;20257;-80
2024/01/19 14:29:49;;;;;;;10.47;8.10;;;1.80;67.90;;;;;;6270547;28;20237;-79
2024/01/19 14:32:54;;;;;;;10.97;9.17;;;1.80;67.80;;;;;;6267865;28;20387;-77
2024/01/19 14:35:57;;;;;;;11.17;8.93;;;1.70;68.10;;;;;;6270388;28;21214;-80
2024/01/19 14:39:00;;;;;;;10.40;8.73;;;1.70;68.40;;;;;;6270300;28;20241;-78
2024/01/19 14:42:08;;;;;;;12.73;8.13;;;1.60;68.70;;;;;;6262605;28;20317;-78
2024/01/19 14:45:15;;;;;;;9.63;8.70;;;1.50;68.80;;;;;;6249899;28;20293;-80
2024/01/19 14:48:18;;;;;;;10.63;9.47;;;1.40;69.00;;;;;;6258484;28;20305;-79
2024/01/19 14:51:21;;;;;;;9.80;8.90;;;1.40;69.20;;;;;;6263407;28;20264;-80
2024/01/19 14:54:25;;;;;;;11.50;9.13;;;1.40;69.40;;;;;;6248242;28;20230;-79
2024/01/19 14:57:30;;;;;;;13.47;10.30;;;1.40;69.70;;;;;;6268403;28;20226;-80
2024/01/19 15:00:34;;;;;;;11.97;8.87;;;1.40;69.50;;;;;;6253376;28;20311;-77
2024/01/19 15:03:37;;;;;;;10.87;9.87;;;1.40;69.50;;;;;;6255945;28;20233;-76
2024/01/19 15:06:41;;;;;;;13.30;11.10;;;1.40;69.90;;;;;;6279681;28;20230;-79
2024/01/19 15:09:44;;;;;;;11.60;8.97;;;1.40;69.90;;;;;;6259626;28;20934;-75
2024/01/19 15:12:49;;;;;;;13.07;9.80;;;1.40;69.80;;;;;;6255393;28;20226;-77
2024/01/19 15:15:52;;;;;;;16.40;10.13;;;1.40;69.70;;;;;;6253856;28;20315;-77
2024/01/19 15:18:55;;;;;;;12.03;10.70;;;1.40;70.10;;;;;;6256109;28;20237;-78
2024/01/19 15:21:59;;;;;;;11.97;10.77;;;1.20;70.10;;;;;;6257204;28;20232;-79
2024/01/19 15:25:02;;;;;;;11.87;9.60;;;1.30;70.10;;;;;;6264961;28;20396;-79
2024/01/19 15:28:06;;;;;;;12.47;10.60;;;1.30;70.30;;;;;;6244354;28;20258;-78
2024/01/19 15:31:09;;;;;;;13.70;10.23;;;1.30;70.10;;;;;;6248096;28;20317;-79
2024/01/19 15:34:13;;;;;;;13.43;10.53;;;1.30;70.10;;;;;;6252366;28;20321;-78
2024/01/19 15:37:16;;;;;;;11.87;10.67;;;1.30;70.00;;;;;;6255053;28;20277;-77
2024/01/19 15:40:19;;;;;;;12.30;9.93;;;1.20;70.40;;;;;;6264022;28;20303;-77
2024/01/19 15:43:23;;;;;;;11.03;9.93;;;1.20;70.20;;;;;;6264314;28;20240;-80
2024/01/19 15:46:27;;;;;;;13.07;10.30;;;1.30;70.00;;;;;;6249875;28;20269;-77
2024/01/19 15:49:30;;;;;;;18.30;11.27;;;1.30;70.00;;;;;;6261882;28;20235;-80
2024/01/19 15:52:33;;;;;;;10.43;9.50;;;1.20;70.10;;;;;;6249199;28;20226;-78
2024/01/19 15:55:37;;;;;;;11.30;10.20;;;1.30;70.20;;;;;;6258067;28;20230;-77
2024/01/19 15:58:41;;;;;;;11.40;10.00;;;1.30;70.40;;;;;;6255298;28;20232;-78